Create Tblcommutelog Verified Points Advance Search
| # | Trip ID | Id Commuter | Trip Date | Trip Num | Current Lat | Current Lng | Delta Distance | Current Time | Activity | Activity Confidence | Current Speed | |
|---|---|---|---|---|---|---|---|---|---|---|---|---|
| 70941 | 250324_761849_16513289_0634 | 761849 | (not set) | (not set) | 38.7850755 | -77.3666445 | 25.6836 | 2025-03-24 11:49:57.538 | in_vehicle | 100 | 9.1687752018382 | |
| 70942 | 250324_761849_16513289_0634 | 761849 | (not set) | (not set) | 38.7836696 | -77.3691036 | 25.848 | 2025-03-24 11:49:57.541 | in_vehicle | 100 | 9.8214525199603 | |
| 70943 | 250324_761849_16513289_0634 | 761849 | (not set) | (not set) | 38.7823459 | -77.3715309 | 26.0077 | 2025-03-24 11:49:57.547 | in_vehicle | 100 | 10.219317460459 | |
| 70944 | 250324_761849_16513289_0634 | 761849 | (not set) | (not set) | 38.7818531 | -77.3750735 | 26.202 | 2025-03-24 11:49:57.586 | in_vehicle | 100 | 7.5639042620723 | |
| 70945 | 250324_761849_16513289_0634 | 761849 | (not set) | (not set) | 38.7526641 | -77.4857702 | 33.4621 | 2025-03-24 11:49:57.992 | on_bicycle | 100 | 3.1873899165825 | |
| 70946 | 250324_748111_16508640_0716 | 748111 | (not set) | (not set) | 38.92375166196 | -77.236796753878 | 8.1475 | 2025-03-24 11:49:58.243 | in_vehicle | 100 | 8.2210519727842 | |
| 70947 | 250324_112747_16513536_0707 | 112747 | (not set) | (not set) | 38.8875004 | -77.0288904 | 15.5614 | 2025-03-24 11:49:58.331 | in_vehicle | 100 | 4.9666061673536 | |
| 70948 | 250324_781336_16450333_0649 | 781336 | (not set) | (not set) | 38.886353862508 | -77.158129736853 | 25.5413 | 2025-03-24 11:49:58.497 | still | 33 | 5.0426028413815 | |
| 70949 | 250324_781618_16456978_0712 | 781618 | (not set) | (not set) | 39.04420672531 | -76.990817388677 | 23.5794 | 2025-03-24 11:50:01.302 | in_vehicle | 100 | 9.4817026831296 | |
| 70950 | 250324_780813_16421763_0741 | 780813 | (not set) | (not set) | 38.786726309954 | -77.284326665175 | 0.8226 | 2025-03-24 11:50:03.68 | in_vehicle | 100 | 0 | |
| 70951 | 250324_781355_16427010_0732 | 781355 | (not set) | (not set) | 38.95489791239 | -77.010479706546 | 2.085 | 2025-03-24 11:50:03.921 | in_vehicle | 100 | 0 | |
| 70952 | 250324_780789_16421763_0747 | 780789 | (not set) | (not set) | 38.881976528236 | -77.54058176896 | 1.2654 | 2025-03-24 11:50:04.167 | unknown | 100 | 9.9332123347072 | |
| 70953 | 250324_768224_16489269_0737 | 768224 | (not set) | (not set) | 38.808259405062 | -77.044598087636 | 0.6283 | 2025-03-24 11:50:04.52 | on_foot | 100 | 0.54538789596502 | |
| 70954 | 250324_767277_16469782_0746 | 767277 | (not set) | (not set) | 39.037892970079 | -77.142783995876 | 1.3136 | 2025-03-24 11:50:05.353 | in_vehicle | 100 | 7.2018024622922 | |
| 70955 | 250324_753586_16500033_0723 | 753586 | (not set) | (not set) | 38.914151820893 | -77.003494274956 | 2.413 | 2025-03-24 11:50:06.179 | in_vehicle | 100 | 3.7283074199576 | |
| 70956 | 250324_738572_16489587_0701 | 738572 | (not set) | (not set) | 38.889827848556 | -77.000726645883 | 21.5141 | 2025-03-24 11:50:07.317 | in_vehicle | 100 | 3.8087744865754 | |
| 70957 | 250324_781588_16504560_0744 | 781588 | (not set) | (not set) | 39.048630722336 | -77.11312894634 | 0.7323 | 2025-03-24 11:50:08.164 | on_foot | 100 | 0.51856554042576 | |
| 70958 | 250324_781588_16504560_0744 | 781588 | (not set) | (not set) | 39.048628981507 | -77.113138279737 | 0.7323 | 2025-03-24 11:50:08.28 | on_foot | 100 | 0.36210179978006 | |
| 70959 | 250324_112747_16513536_0707 | 112747 | (not set) | (not set) | 38.8875136 | -77.0270254 | 15.662 | 2025-03-24 11:50:09.366 | in_vehicle | 100 | 6.7458224181248 | |
| 70960 | 250324_774579_16505682_0708 | 774579 | (not set) | (not set) | 38.910599608293 | -76.999978668886 | 28.6106 | 2025-03-24 11:50:11.195 | in_vehicle | 100 | 3.4511430793852 |